createdAt,value
2022-11-17T00:01:49.572Z,97610.40
2022-11-17T00:04:27.040Z,97614.60
2022-11-17T00:07:03.515Z,97613.00
2022-11-17T00:09:39.601Z,97614.40
2022-11-17T00:12:33.291Z,97617.00
2022-11-17T00:15:11.416Z,97612.60
2022-11-17T00:17:49.325Z,97612.60
2022-11-17T00:20:43.125Z,97612.40
2022-11-17T00:23:19.081Z,97610.20
2022-11-17T00:25:55.099Z,97610.40
2022-11-17T00:28:31.990Z,97609.20
2022-11-17T00:31:30.305Z,97620.00
2022-11-17T00:34:06.690Z,97628.00
2022-11-17T00:36:46.453Z,97631.40
2022-11-17T00:39:25.019Z,97629.60
2022-11-17T00:42:01.159Z,97633.80
2022-11-17T00:44:37.142Z,97635.80
2022-11-17T00:47:13.088Z,97635.60
2022-11-17T00:49:49.040Z,97642.00
2022-11-17T00:52:24.951Z,97640.40
2022-11-17T00:55:00.893Z,97642.60
2022-11-17T00:57:36.950Z,97637.00
2022-11-17T01:00:16.120Z,97634.60
2022-11-17T01:02:52.283Z,97634.60
2022-11-17T01:05:32.822Z,97631.80
2022-11-17T01:08:09.958Z,97635.20
2022-11-17T01:10:45.929Z,97633.80
2022-11-17T01:13:24.330Z,97633.60
2022-11-17T01:16:05.091Z,97634.60
2022-11-17T01:18:42.990Z,97627.60
2022-11-17T01:21:23.828Z,97624.20
2022-11-17T01:24:02.513Z,97627.00
2022-11-17T01:26:41.307Z,97628.20
2022-11-17T01:29:19.186Z,97626.20
2022-11-17T01:31:56.948Z,97617.60
2022-11-17T01:34:34.564Z,97616.20
2022-11-17T01:37:22.639Z,97613.40
2022-11-17T01:39:58.606Z,97613.20
2022-11-17T01:42:34.585Z,97603.40
2022-11-17T01:45:23.302Z,97600.20
2022-11-17T01:48:03.323Z,97596.40
2022-11-17T01:50:46.819Z,97599.20
2022-11-17T01:53:28.551Z,97606.60
2022-11-17T01:56:12.591Z,97604.60
2022-11-17T01:58:57.246Z,97606.00
2022-11-17T02:01:34.518Z,97612.60
2022-11-17T02:04:11.134Z,97612.40
2022-11-17T02:06:47.496Z,97616.00
2022-11-17T02:09:25.742Z,97610.00
2022-11-17T02:12:04.215Z,97612.80
2022-11-17T02:14:42.056Z,97615.00
2022-11-17T02:17:19.284Z,97618.80
2022-11-17T02:20:12.452Z,97623.00
2022-11-17T02:23:46.258Z,97620.40
2022-11-17T02:27:17.423Z,97615.80
2022-11-17T02:30:04.530Z,97616.60
2022-11-17T02:33:00.222Z,97617.80
2022-11-17T02:35:51.251Z,97611.80
2022-11-17T02:38:38.402Z,97613.80
2022-11-17T02:41:25.975Z,97613.00
2022-11-17T02:44:13.908Z,97610.40
2022-11-17T02:46:57.464Z,97609.80
2022-11-17T02:49:38.869Z,97614.40
2022-11-17T02:52:16.592Z,97598.20
2022-11-17T02:54:52.539Z,97593.80
2022-11-17T02:57:37.457Z,97589.00
2022-11-17T03:00:20.068Z,97584.00
2022-11-17T03:03:38.867Z,97581.40
2022-11-17T03:06:39.750Z,97583.60
2022-11-17T03:09:24.974Z,97580.80
2022-11-17T03:12:17.562Z,97583.40
2022-11-17T03:15:11.859Z,97593.60
2022-11-17T03:17:59.768Z,97600.00
2022-11-17T03:20:49.699Z,97606.00
2022-11-17T03:23:34.834Z,97607.20
2022-11-17T03:26:17.878Z,97609.60
2022-11-17T03:28:55.645Z,97614.20
2022-11-17T03:31:33.609Z,97606.20
2022-11-17T03:34:14.400Z,97606.80
2022-11-17T03:36:56.675Z,97610.80
2022-11-17T03:39:37.891Z,97612.40
2022-11-17T03:42:21.953Z,97614.00
2022-11-17T03:45:10.596Z,97613.80
2022-11-17T03:47:48.876Z,97606.80
2022-11-17T03:50:34.111Z,97608.40
2022-11-17T03:53:10.555Z,97606.80
2022-11-17T03:55:58.851Z,97610.40
2022-11-17T03:58:45.587Z,97611.60
2022-11-17T04:01:24.215Z,97607.00
2022-11-17T04:04:00.897Z,97607.20
2022-11-17T04:06:36.628Z,97609.60
2022-11-17T04:09:12.581Z,97611.60
2022-11-17T04:12:06.243Z,97615.80
2022-11-17T04:15:00.223Z,97627.60
2022-11-17T04:17:36.369Z,97606.40
2022-11-17T04:20:14.753Z,97606.40
2022-11-17T04:23:07.126Z,97606.80
2022-11-17T04:26:04.381Z,97602.20
2022-11-17T04:28:45.539Z,97606.00
2022-11-17T04:31:24.117Z,97610.40
2022-11-17T04:34:03.119Z,97617.00
2022-11-17T04:36:44.525Z,97615.80
2022-11-17T04:39:20.920Z,97620.40
2022-11-17T04:42:02.190Z,97621.00
2022-11-17T04:44:38.136Z,97631.00
2022-11-17T04:47:14.043Z,97627.00
2022-11-17T04:49:50.064Z,97629.40
2022-11-17T04:52:29.798Z,97634.00
2022-11-17T04:55:06.676Z,97638.60
2022-11-17T04:57:42.766Z,97629.60
2022-11-17T05:00:21.912Z,97620.00
2022-11-17T05:02:57.896Z,97624.80
2022-11-17T05:05:33.940Z,97623.80
2022-11-17T05:08:09.991Z,97626.40
2022-11-17T05:11:15.365Z,97630.20
2022-11-17T05:13:53.250Z,97627.40
2022-11-17T05:16:47.285Z,97634.60
2022-11-17T05:19:27.011Z,97635.40
2022-11-17T05:22:03.734Z,97639.80
2022-11-17T05:24:40.518Z,97644.80
2022-11-17T05:27:16.271Z,97631.40
2022-11-17T05:29:52.203Z,97630.40
2022-11-17T05:32:28.247Z,97633.20
2022-11-17T05:35:04.310Z,97631.60
2022-11-17T05:37:40.263Z,97627.40
2022-11-17T05:40:18.185Z,97633.60
2022-11-17T05:42:57.073Z,97638.40
2022-11-17T05:45:33.336Z,97638.80
2022-11-17T05:48:10.534Z,97636.60
2022-11-17T05:50:46.357Z,97639.20
2022-11-17T05:53:22.350Z,97642.40
2022-11-17T05:56:30.600Z,97643.60
2022-11-17T05:59:23.312Z,97648.80
2022-11-17T06:02:08.793Z,97651.00
2022-11-17T06:04:46.330Z,97651.60
2022-11-17T06:07:22.671Z,97645.80
2022-11-17T06:09:59.213Z,97650.60
2022-11-17T06:12:35.060Z,97655.20
2022-11-17T06:15:13.330Z,97651.60
2022-11-17T06:17:57.115Z,97660.80
2022-11-17T06:20:36.938Z,97662.20
2022-11-17T06:23:14.558Z,97676.80
2022-11-17T06:25:51.366Z,97674.00
2022-11-17T06:28:30.055Z,97679.60
2022-11-17T06:31:08.562Z,97675.80
2022-11-17T06:33:44.988Z,97683.00
2022-11-17T06:36:21.113Z,97691.00
2022-11-17T06:38:57.180Z,97702.00
2022-11-17T06:41:33.163Z,97696.20
2022-11-17T06:44:09.607Z,97705.00
2022-11-17T06:46:48.947Z,97694.00
2022-11-17T06:49:25.306Z,97694.20
2022-11-17T06:52:01.575Z,97697.40
2022-11-17T06:54:37.640Z,97687.20
2022-11-17T06:57:13.799Z,97691.00
2022-11-17T06:59:49.859Z,97689.20
2022-11-17T07:02:25.917Z,97707.20
2022-11-17T07:05:02.077Z,97704.60
2022-11-17T07:07:38.196Z,97703.60
2022-11-17T07:10:15.551Z,97699.80
2022-11-17T07:12:52.841Z,97706.60
2022-11-17T07:15:29.337Z,97707.20
2022-11-17T07:18:05.443Z,97710.60
2022-11-17T07:20:41.709Z,97707.00
2022-11-17T07:23:17.768Z,97699.40
2022-11-17T07:25:56.427Z,97702.20
2022-11-17T07:28:33.932Z,97700.40
2022-11-17T07:31:11.825Z,97702.60
2022-11-17T07:33:47.691Z,97705.20
2022-11-17T07:36:23.552Z,97708.00
2022-11-17T07:38:59.295Z,97707.80
2022-11-17T07:41:35.299Z,97710.00
2022-11-17T07:44:11.880Z,97707.20
2022-11-17T07:46:47.824Z,97711.00
2022-11-17T07:49:23.681Z,97711.20
2022-11-17T07:51:59.635Z,97717.80
2022-11-17T07:54:35.415Z,97725.00
2022-11-17T07:57:11.348Z,97729.80
2022-11-17T07:59:47.428Z,97729.80
2022-11-17T08:02:23.360Z,97721.00
2022-11-17T08:04:59.315Z,97720.40
2022-11-17T08:07:35.549Z,97723.00
2022-11-17T08:10:13.600Z,97728.80
2022-11-17T08:12:51.634Z,97727.60
2022-11-17T08:15:28.163Z,97727.00
2022-11-17T08:18:06.304Z,97722.20
2022-11-17T08:20:42.223Z,97720.20
2022-11-17T08:23:18.640Z,97721.60
2022-11-17T08:25:54.957Z,97719.20
2022-11-17T08:28:31.052Z,97719.00
2022-11-17T08:31:09.212Z,97723.40
2022-11-17T08:33:45.282Z,97720.40
2022-11-17T08:36:21.113Z,97715.80
2022-11-17T08:38:57.091Z,97718.20
2022-11-17T08:41:33.149Z,97713.60
2022-11-17T08:44:09.927Z,97722.20
2022-11-17T08:46:46.087Z,97733.60
2022-11-17T08:49:22.246Z,97740.60
2022-11-17T08:51:58.205Z,97742.00
2022-11-17T08:54:35.008Z,97739.00
2022-11-17T08:57:10.927Z,97734.20
2022-11-17T08:59:46.724Z,97739.40
2022-11-17T09:02:22.744Z,97744.20
2022-11-17T09:04:58.802Z,97740.80
2022-11-17T09:07:36.935Z,97740.80
2022-11-17T09:10:14.499Z,97744.40
2022-11-17T09:12:50.302Z,97744.20
2022-11-17T09:15:26.535Z,97745.00
2022-11-17T09:18:03.251Z,97741.60
2022-11-17T09:20:45.358Z,97741.80
2022-11-17T09:23:21.713Z,97749.80
2022-11-17T09:25:57.611Z,97741.80
2022-11-17T09:28:33.980Z,97741.40
2022-11-17T09:31:16.355Z,97739.60
2022-11-17T09:33:52.291Z,97751.60
2022-11-17T09:36:28.617Z,97742.20
2022-11-17T09:39:04.478Z,97745.00
2022-11-17T09:41:46.240Z,97741.60
2022-11-17T09:44:40.317Z,97734.20
2022-11-17T09:47:33.803Z,97741.20
2022-11-17T09:50:24.732Z,97740.80
2022-11-17T09:53:13.967Z,97744.00
2022-11-17T09:55:55.210Z,97745.00
2022-11-17T09:58:44.160Z,97738.40
2022-11-17T10:01:23.596Z,97739.80
2022-11-17T10:04:01.531Z,97738.80
2022-11-17T10:06:40.116Z,97739.60
2022-11-17T10:09:36.258Z,97741.80
2022-11-17T10:12:23.607Z,97745.60
2022-11-17T10:15:10.529Z,97740.40
2022-11-17T10:17:46.418Z,97740.40
2022-11-17T10:20:23.971Z,97739.20
2022-11-17T10:23:03.035Z,97736.20
2022-11-17T10:25:45.067Z,97729.80
2022-11-17T10:28:33.970Z,97735.00
2022-11-17T10:31:19.661Z,97739.80
2022-11-17T10:33:55.914Z,97729.40
2022-11-17T10:36:34.128Z,97734.20
2022-11-17T10:39:39.263Z,97730.20
2022-11-17T10:42:28.861Z,97731.80
2022-11-17T10:45:06.496Z,97729.40
2022-11-17T10:47:44.518Z,97728.60
2022-11-17T10:50:30.571Z,97732.00
2022-11-17T10:53:30.250Z,97731.60
2022-11-17T10:56:15.783Z,97736.80
2022-11-17T10:59:20.391Z,97742.40
2022-11-17T11:01:57.066Z,97743.40
2022-11-17T11:04:40.450Z,97736.40
2022-11-17T11:07:23.765Z,97744.40
2022-11-17T11:10:11.111Z,97748.00
2022-11-17T11:12:54.861Z,97745.60
2022-11-17T11:15:37.494Z,97745.80
2022-11-17T11:18:19.802Z,97746.20
2022-11-17T11:21:11.339Z,97742.80
2022-11-17T11:24:02.292Z,97748.80
2022-11-17T11:27:05.644Z,97744.60
2022-11-17T11:30:06.269Z,97736.20
2022-11-17T11:33:07.830Z,97742.00
2022-11-17T11:36:15.338Z,97735.80
2022-11-17T11:39:14.581Z,97740.60
2022-11-17T11:42:17.948Z,97749.60
2022-11-17T11:45:19.036Z,97747.40
2022-11-17T11:48:27.698Z,97744.40
2022-11-17T11:51:06.890Z,97745.80
2022-11-17T11:53:58.811Z,97745.40
2022-11-17T11:56:40.135Z,97749.20
2022-11-17T11:59:25.403Z,97749.00
2022-11-17T12:02:25.696Z,97745.40
2022-11-17T12:05:20.605Z,97750.80
2022-11-17T12:08:11.029Z,97754.40
2022-11-17T12:10:58.899Z,97753.40
2022-11-17T12:13:37.696Z,97758.80
2022-11-17T12:16:35.395Z,97743.20
2022-11-17T12:19:55.438Z,97734.00
2022-11-17T12:23:07.832Z,97716.40
2022-11-17T12:25:53.706Z,97723.40
2022-11-17T12:28:38.904Z,97728.20
2022-11-17T12:31:53.368Z,97736.60
2022-11-17T12:34:33.781Z,97736.80
2022-11-17T12:37:30.212Z,97733.60
2022-11-17T12:40:10.266Z,97738.40
2022-11-17T12:43:24.883Z,97738.80
2022-11-17T12:46:26.134Z,97749.00
2022-11-17T12:49:13.786Z,97750.20
2022-11-17T12:52:04.037Z,97749.60
2022-11-17T12:54:55.808Z,97758.80
2022-11-17T12:57:36.559Z,97763.20
2022-11-17T13:00:23.128Z,97766.80
2022-11-17T13:03:14.416Z,97766.20
2022-11-17T13:06:34.436Z,97768.40
2022-11-17T13:09:15.146Z,97766.20
2022-11-17T13:12:06.383Z,97767.80
2022-11-17T13:14:57.553Z,97784.80
2022-11-17T13:17:40.885Z,97782.60
2022-11-17T13:20:29.213Z,97780.80
2022-11-17T13:23:15.557Z,97779.80
2022-11-17T13:25:52.348Z,97775.40
2022-11-17T13:28:34.859Z,97775.80
2022-11-17T13:31:18.393Z,97771.20
2022-11-17T13:34:08.837Z,97766.40
2022-11-17T13:36:59.099Z,97767.40
2022-11-17T13:39:35.185Z,97772.80
2022-11-17T13:42:13.372Z,97773.80
2022-11-17T13:44:49.891Z,97785.20
2022-11-17T13:47:45.536Z,97785.80
2022-11-17T13:50:40.106Z,97796.40
2022-11-17T13:53:33.397Z,97789.60
2022-11-17T13:56:28.090Z,97785.60
2022-11-17T13:59:07.050Z,97786.80
2022-11-17T14:01:44.354Z,97788.40
2022-11-17T14:04:24.962Z,97792.60
2022-11-17T14:07:04.326Z,97795.80
2022-11-17T14:09:40.163Z,97792.80
2022-11-17T14:12:21.591Z,97800.60
2022-11-17T14:14:57.483Z,97791.00
2022-11-17T14:17:33.863Z,97789.60
2022-11-17T14:23:19.720Z,97780.00
2022-11-17T14:25:56.349Z,97764.20
2022-11-17T14:28:32.552Z,97764.00
2022-11-17T14:31:12.400Z,97769.20
2022-11-17T14:33:50.614Z,97776.40
2022-11-17T14:36:26.974Z,97766.00
2022-11-17T14:39:05.685Z,97769.20
2022-11-17T14:41:42.147Z,97774.20
2022-11-17T14:44:18.524Z,97779.80
2022-11-17T14:46:54.464Z,97781.80
2022-11-17T14:49:30.722Z,97778.00
2022-11-17T14:52:07.314Z,97771.40
2022-11-17T14:54:43.318Z,97769.00
2022-11-17T14:57:19.694Z,97770.80
2022-11-17T14:59:56.008Z,97771.40
2022-11-17T15:02:32.171Z,97770.80
2022-11-17T15:05:09.931Z,97772.20
2022-11-17T15:07:46.140Z,97773.60
2022-11-17T15:10:23.209Z,97769.20
2022-11-17T15:12:59.166Z,97768.20
2022-11-17T15:15:35.268Z,97762.00
2022-11-17T15:18:13.026Z,97762.60
2022-11-17T15:20:49.105Z,97759.40
2022-11-17T15:23:25.038Z,97751.40
2022-11-17T15:26:06.624Z,97752.40
2022-11-17T15:28:43.521Z,97754.20
2022-11-17T15:31:22.510Z,97748.40
2022-11-17T15:33:58.792Z,97737.40
2022-11-17T15:36:34.909Z,97736.80
2022-11-17T15:39:11.672Z,97738.80
2022-11-17T15:41:48.965Z,97730.60
2022-11-17T15:44:25.173Z,97723.60
2022-11-17T15:47:01.462Z,97720.60
2022-11-17T15:49:37.713Z,97729.00
2022-11-17T15:52:13.893Z,97730.00
2022-11-17T15:54:49.823Z,97728.20
2022-11-17T15:57:26.084Z,97724.80
2022-11-17T16:00:02.041Z,97731.60
2022-11-17T16:02:41.643Z,97729.20
2022-11-17T16:05:17.951Z,97725.60
2022-11-17T16:07:53.928Z,97732.00
2022-11-17T16:10:30.339Z,97737.60
2022-11-17T16:13:06.327Z,97737.20
2022-11-17T16:15:42.389Z,97729.60
2022-11-17T16:18:18.624Z,97730.00
2022-11-17T16:20:56.163Z,97723.60
2022-11-17T16:23:40.180Z,97716.20
2022-11-17T16:26:19.170Z,97718.20
2022-11-17T16:29:01.127Z,97718.20
2022-11-17T16:31:39.063Z,97715.00
2022-11-17T16:34:19.350Z,97716.20
2022-11-17T16:36:55.420Z,97720.00
2022-11-17T16:39:31.700Z,97721.40
2022-11-17T16:42:08.871Z,97720.00
2022-11-17T16:44:44.865Z,97714.00
2022-11-17T16:47:20.884Z,97717.00
2022-11-17T16:49:56.910Z,97726.40
2022-11-17T16:52:34.852Z,97731.40
2022-11-17T16:55:13.156Z,97730.20
2022-11-17T16:57:49.216Z,97724.00
2022-11-17T17:00:26.728Z,97721.80
2022-11-17T17:03:03.216Z,97724.40
2022-11-17T17:05:42.621Z,97727.20
2022-11-17T17:08:18.883Z,97729.00
2022-11-17T17:10:55.024Z,97734.40
2022-11-17T17:13:30.985Z,97740.20
2022-11-17T17:16:12.716Z,97740.20
2022-11-17T17:18:48.948Z,97742.00
2022-11-17T17:21:27.875Z,97747.80
2022-11-17T17:24:05.497Z,97746.40
2022-11-17T17:26:42.772Z,97745.00
2022-11-17T17:29:19.494Z,97745.80
2022-11-17T17:32:04.149Z,97745.40
2022-11-17T17:34:40.935Z,97749.60
2022-11-17T17:37:17.732Z,97751.20
2022-11-17T17:39:53.924Z,97751.00
2022-11-17T17:42:30.372Z,97756.00
2022-11-17T17:45:07.765Z,97752.40
2022-11-17T17:47:43.828Z,97748.00
2022-11-17T17:50:20.536Z,97739.20
2022-11-17T17:52:56.601Z,97735.40
2022-11-17T17:55:34.204Z,97729.80
2022-11-17T17:58:10.298Z,97735.60
2022-11-17T18:00:47.580Z,97730.60
2022-11-17T18:03:23.806Z,97728.40
2022-11-17T18:06:04.969Z,97727.20
2022-11-17T18:08:41.503Z,97726.60
2022-11-17T18:11:21.158Z,97726.20
2022-11-17T18:13:58.596Z,97726.40
2022-11-17T18:16:36.425Z,97728.80
2022-11-17T18:19:18.108Z,97722.00
2022-11-17T18:21:52.798Z,97723.00
2022-11-17T18:24:29.885Z,97727.80
2022-11-17T18:27:08.420Z,97728.80
2022-11-17T18:29:45.632Z,97733.20
2022-11-17T18:32:21.575Z,97729.00
2022-11-17T18:34:57.748Z,97727.80
2022-11-17T18:37:34.034Z,97727.40
2022-11-17T18:40:14.228Z,97722.60
2022-11-17T18:42:50.135Z,97724.60
2022-11-17T18:45:26.155Z,97720.40
2022-11-17T18:48:02.122Z,97715.60
2022-11-17T18:50:57.906Z,97713.80
2022-11-17T18:53:37.177Z,97711.80
2022-11-17T18:56:16.366Z,97707.80
2022-11-17T18:58:52.661Z,97710.00
2022-11-17T19:01:30.890Z,97707.00
2022-11-17T19:04:07.599Z,97704.40
2022-11-17T19:06:44.038Z,97699.20
2022-11-17T19:09:20.377Z,97693.20
2022-11-17T19:11:57.257Z,97695.80
2022-11-17T19:14:33.919Z,97696.60
2022-11-17T19:17:10.032Z,97696.20
2022-11-17T19:19:46.274Z,97697.40
2022-11-17T19:22:22.718Z,97696.00
2022-11-17T19:24:58.778Z,97698.20
2022-11-17T19:27:35.083Z,97692.80
2022-11-17T19:30:14.874Z,97688.80
2022-11-17T19:32:51.359Z,97685.60
2022-11-17T19:35:27.603Z,97682.20
2022-11-17T19:38:04.024Z,97676.60
2022-11-17T19:40:40.353Z,97668.00
2022-11-17T19:43:19.345Z,97666.80
2022-11-17T19:46:00.481Z,97667.80
2022-11-17T19:48:37.409Z,97670.80
2022-11-17T19:51:25.769Z,97665.00
2022-11-17T19:54:07.166Z,97670.60
2022-11-17T19:56:43.213Z,97671.20
2022-11-17T19:59:22.294Z,97677.00
2022-11-17T20:01:59.149Z,97681.00
2022-11-17T20:04:35.591Z,97679.80
2022-11-17T20:07:13.812Z,97684.20
2022-11-17T20:09:50.259Z,97691.80
2022-11-17T20:12:26.730Z,97693.60
2022-11-17T20:15:02.991Z,97692.80
2022-11-17T20:17:38.859Z,97686.60
2022-11-17T20:20:17.195Z,97690.60
2022-11-17T20:22:53.113Z,97689.00
2022-11-17T20:25:31.028Z,97686.60
2022-11-17T20:28:08.712Z,97691.00
2022-11-17T20:30:46.341Z,97694.60
2022-11-17T20:33:22.571Z,97699.60
2022-11-17T20:36:02.613Z,97693.20
2022-11-17T20:38:39.288Z,97690.80
2022-11-17T20:41:15.556Z,97695.80
2022-11-17T20:43:55.011Z,97688.60
2022-11-17T20:46:31.642Z,97693.00
2022-11-17T20:49:08.237Z,97691.20
2022-11-17T20:51:45.217Z,97689.60
2022-11-17T20:54:21.589Z,97684.20
2022-11-17T20:56:57.847Z,97679.60
2022-11-17T20:59:33.804Z,97681.60
2022-11-17T21:02:11.910Z,97680.00
2022-11-17T21:04:47.966Z,97676.00
2022-11-17T21:07:24.207Z,97676.40
2022-11-17T21:10:00.500Z,97675.00
2022-11-17T21:12:36.734Z,97673.60
2022-11-17T21:15:14.324Z,97675.40
2022-11-17T21:18:07.691Z,97669.60
2022-11-17T21:20:43.850Z,97669.20
2022-11-17T21:23:19.921Z,97662.80
2022-11-17T21:25:55.881Z,97654.80
2022-11-17T21:28:31.891Z,97658.00
2022-11-17T21:31:15.464Z,97654.20
2022-11-17T21:33:55.085Z,97654.60
2022-11-17T21:36:34.822Z,97647.60
2022-11-17T21:39:16.750Z,97636.80
2022-11-17T21:41:53.014Z,97625.80
2022-11-17T21:44:29.021Z,97621.20
2022-11-17T21:47:05.333Z,97615.20
2022-11-17T21:49:41.260Z,97609.00
2022-11-17T21:52:17.450Z,97605.80
2022-11-17T21:54:53.407Z,97605.60
2022-11-17T21:57:29.581Z,97606.40
2022-11-17T22:00:06.163Z,97605.60
2022-11-17T22:02:42.198Z,97609.00
2022-11-17T22:05:18.463Z,97609.80
2022-11-17T22:07:54.426Z,97605.00
2022-11-17T22:10:30.381Z,97597.80
2022-11-17T22:13:08.381Z,97594.20
2022-11-17T22:15:44.265Z,97587.20
2022-11-17T22:18:20.104Z,97578.80
2022-11-17T22:20:57.656Z,97585.60
2022-11-17T22:23:34.254Z,97583.80
2022-11-17T22:26:12.536Z,97588.60
2022-11-17T22:28:53.918Z,97588.80
2022-11-17T22:31:30.003Z,97587.20
2022-11-17T22:34:06.413Z,97591.40
2022-11-17T22:36:42.585Z,97596.20
2022-11-17T22:39:20.087Z,97599.40
2022-11-17T22:41:56.333Z,97598.80
2022-11-17T22:44:32.350Z,97599.00
2022-11-17T22:47:08.374Z,97596.20
2022-11-17T22:49:44.365Z,97596.20
2022-11-17T22:52:20.423Z,97594.80
2022-11-17T22:54:56.490Z,97595.80
2022-11-17T22:57:32.537Z,97586.40
2022-11-17T23:00:11.380Z,97584.00
2022-11-17T23:02:47.361Z,97572.40
2022-11-17T23:05:23.907Z,97576.20
2022-11-17T23:08:00.901Z,97578.60
2022-11-17T23:10:39.490Z,97574.40
2022-11-17T23:13:15.659Z,97576.40
2022-11-17T23:15:51.709Z,97570.40
2022-11-17T23:18:28.026Z,97573.80
2022-11-17T23:21:08.258Z,97572.20
2022-11-17T23:23:44.899Z,97573.40
2022-11-17T23:26:21.062Z,97566.20
2022-11-17T23:28:58.363Z,97561.80
2022-11-17T23:31:34.492Z,97560.00
2022-11-17T23:34:12.812Z,97554.80
2022-11-17T23:36:48.673Z,97558.00
2022-11-17T23:39:25.295Z,97552.20
2022-11-17T23:42:01.404Z,97546.80
2022-11-17T23:44:37.361Z,97545.80
2022-11-17T23:47:13.282Z,97542.00
2022-11-17T23:49:49.554Z,97545.00
2022-11-17T23:52:25.648Z,97538.80
2022-11-17T23:55:01.599Z,97535.60
2022-11-17T23:57:37.393Z,97535.40
